GOOY/DKR METAR and TAF weather

Enter ICAO airport designator
Station Type Date Time Source
GOOY METAR 2019/06/18 14:00 UTC NOAA

GOOY 181400Z 32004KT CAVOK 28/22 Q1013


Station Type Date Time Source
GOOY Decoded METAR 2019/06/18 14:00 UTC NOAA

Dakar / Yoff, Senegal (GOOY) 14-44N 017-30W 24M
Jun 18, 2019 - 10:00 AM EDT / 2019.06.18 1400 UTC
Wind: from the NW (320 degrees) at 5 MPH (4 KT):0
Visibility: greater than 7 mile(s):0
Temperature: 82 F (28 C)
Dew Point: 71 F (22 C)
Relative Humidity: 69%
Pressure (altimeter): 29.91 in. Hg (1013 hPa)
ob: GOOY 181400Z 32004KT CAVOK 28/22 Q1013
cycle: 14

Station Type Date Time Source
GOOY TAF 2019/06/18 12:42 UTC NOAA

TAF COR GOOY 181130Z 1812/1918 28008KT CAVOK

Example: see airport list